X  Sluiten METAR luchtvaart weer gegevens      EDDG Münster Osnabrück Airport
Temperatuur
6°C Temperatuur
3°C Dauwpunt
81% Vochtigheid



Wind
24 KM/U
15 MPH
7 M/S
13 KTS



210°
ZZW
Huidig weer

Grotendeels bewolkt Grotendeels bewolkt
Luchtdruk 998.98 (hPa) - 29.5 (inHg)
Zicht 6 (mijl) - 9.7 (km)
Vliegveld
Vliegveld code EDDG

Locatie : Münster Osnabrück Airport
Afstand: 45 (km)

Metar:
EDDG 241220Z AUTO 21013KT 170V240 9999 BKN017 BKN024 06/03 Q0999 NOSIG

Tijd: 24-02-2024 12:20 CET